Time,TemperatureF,DewpointF,PressureIn,WindDirection,WindDirectionDegrees,WindSpeedMPH,WindSpeedGustMPH,Humidity,HourlyPrecipIn,Conditions,Clouds,dailyrainin,SoftwareType,DateUTC
2014-02-01 00:13:00,35.1,33.3,29.90,South,180,0.0,-999.0,93,-99.99,,,0.00,Acu-Link.com,2014-02-01 08:13:00,
2014-02-01 00:28:00,34.9,33.1,29.90,ESE,112,0.0,-999.0,93,-99.99,,,0.00,Acu-Link.com,2014-02-01 08:28:00,
2014-02-01 00:44:00,34.5,33.0,29.90,SE,135,1.7,-999.0,94,-99.99,,,0.00,Acu-Link.com,2014-02-01 08:44:00,
2014-02-01 00:59:00,34.2,32.7,29.91,East,90,0.0,-999.0,94,-99.99,,,0.00,Acu-Link.com,2014-02-01 08:59:00,
2014-02-01 01:14:00,33.8,32.5,29.91,ESE,112,0.0,-999.0,95,-99.99,,,0.00,Acu-Link.com,2014-02-01 09:14:00,
2014-02-01 01:30:00,33.3,32.0,29.91,ESE,112,0.0,-999.0,95,-99.99,,,0.00,Acu-Link.com,2014-02-01 09:30:00,
2014-02-01 01:45:00,33.1,32.1,29.91,NE,45,0.0,-999.0,96,-99.99,,,0.00,Acu-Link.com,2014-02-01 09:45:00,
2014-02-01 02:00:00,32.7,31.9,29.92,SE,135,0.0,-999.0,97,-99.99,,,0.00,Acu-Link.com,2014-02-01 10:00:00,
2014-02-01 02:16:00,32.2,31.4,29.91,ENE,67,0.0,-999.0,97,-99.99,,,0.00,Acu-Link.com,2014-02-01 10:16:00,
2014-02-01 02:31:00,32.0,31.5,29.91,ESE,112,0.0,-999.0,98,-99.99,,,0.00,Acu-Link.com,2014-02-01 10:31:00,
2014-02-01 02:46:00,31.8,31.3,29.92,East,90,0.0,-999.0,98,-99.99,,,0.00,Acu-Link.com,2014-02-01 10:46:00,
2014-02-01 03:01:00,31.3,30.8,29.92,NW,315,0.0,-999.0,98,-99.99,,,0.00,Acu-Link.com,2014-02-01 11:01:00,
2014-02-01 03:17:00,31.1,30.9,29.92,SE,135,0.0,-999.0,99,-99.99,,,0.00,Acu-Link.com,2014-02-01 11:17:00,
2014-02-01 03:32:00,31.1,30.9,29.92,ESE,112,0.0,-999.0,99,-99.99,,,0.00,Acu-Link.com,2014-02-01 11:32:00,
2014-02-01 03:47:00,30.6,30.4,29.93,West,270,0.0,-999.0,99,-99.99,,,0.00,Acu-Link.com,2014-02-01 11:47:00,
2014-02-01 04:03:00,30.2,30.0,29.93,SE,135,0.0,-999.0,99,-99.99,,,0.00,Acu-Link.com,2014-02-01 12:03:00,
2014-02-01 04:18:00,30.0,29.8,29.93,ESE,112,0.0,-999.0,99,-99.99,,,0.00,Acu-Link.com,2014-02-01 12:18:00,
2014-02-01 04:33:00,29.8,29.6,29.94,SE,135,0.0,-999.0,99,-99.99,,,0.00,Acu-Link.com,2014-02-01 12:33:00,
2014-02-01 04:49:00,29.3,29.1,29.94,SW,225,0.0,-999.0,99,-99.99,,,0.00,Acu-Link.com,2014-02-01 12:49:00,
2014-02-01 05:04:00,29.1,28.9,29.94,ESE,112,0.0,-999.0,99,-99.99,,,0.00,Acu-Link.com,2014-02-01 13:04:00,
2014-02-01 05:19:00,28.9,28.7,29.95,SSE,157,0.0,-999.0,99,-99.99,,,0.00,Acu-Link.com,2014-02-01 13:19:00,
2014-02-01 05:34:00,28.8,28.6,29.95,East,90,0.0,-999.0,99,-99.99,,,0.00,Acu-Link.com,2014-02-01 13:34:00,
2014-02-01 05:50:00,28.2,28.0,29.95,ESE,112,0.0,-999.0,99,-99.99,,,0.00,Acu-Link.com,2014-02-01 13:50:00,
2014-02-01 06:05:00,28.0,27.8,29.95,ESE,112,0.0,-999.0,99,-99.99,,,0.00,Acu-Link.com,2014-02-01 14:05:00,
2014-02-01 06:20:00,28.2,28.0,29.96,ESE,112,0.0,-999.0,99,-99.99,,,0.00,Acu-Link.com,2014-02-01 14:20:00,
2014-02-01 06:36:00,28.0,27.8,29.97,ESE,112,0.0,-999.0,99,-99.99,,,0.00,Acu-Link.com,2014-02-01 14:36:00,
2014-02-01 06:51:00,27.9,27.7,29.97,ESE,112,0.0,-999.0,99,-99.99,,,0.00,Acu-Link.com,2014-02-01 14:51:00,
2014-02-01 07:06:00,27.5,27.3,29.97,ESE,112,0.0,-999.0,99,-99.99,,,0.00,Acu-Link.com,2014-02-01 15:06:00,
2014-02-01 07:22:00,27.3,27.1,29.97,ESE,112,0.0,-999.0,99,-99.99,,,0.00,Acu-Link.com,2014-02-01 15:22:00,
2014-02-01 07:37:00,27.7,27.5,29.98,SSE,157,0.0,-999.0,99,-99.99,,,0.00,Acu-Link.com,2014-02-01 15:37:00,
2014-02-01 07:52:00,27.5,27.3,29.98,WSW,247,0.0,-999.0,99,-99.99,,,0.00,Acu-Link.com,2014-02-01 15:52:00,
2014-02-01 08:07:00,28.0,27.8,29.99,South,180,0.0,-999.0,99,-99.99,,,0.00,Acu-Link.com,2014-02-01 16:07:00,
2014-02-01 08:23:00,28.6,28.4,29.99,SSW,202,0.0,-999.0,99,-99.99,,,0.00,Acu-Link.com,2014-02-01 16:23:00,
2014-02-01 08:38:00,30.4,30.2,29.99,SE,135,0.0,-999.0,99,-99.99,,,0.00,Acu-Link.com,2014-02-01 16:38:00,
2014-02-01 08:53:00,31.3,31.1,29.99,WNW,292,0.0,-999.0,99,-99.99,,,0.00,Acu-Link.com,2014-02-01 16:53:00,
2014-02-01 09:09:00,33.4,33.1,29.99,SW,225,0.0,-999.0,99,-99.99,,,0.00,Acu-Link.com,2014-02-01 17:09:00,
2014-02-01 09:24:00,37.6,37.3,29.99,SW,225,1.7,-999.0,99,-99.99,,,0.00,Acu-Link.com,2014-02-01 17:24:00,
2014-02-01 09:39:00,42.3,37.8,29.99,ESE,112,0.0,-999.0,84,-99.99,,,0.00,Acu-Link.com,2014-02-01 17:39:00,
2014-02-01 09:55:00,46.4,37.5,29.98,NW,315,0.0,-999.0,71,-99.99,,,0.00,Acu-Link.com,2014-02-01 17:55:00,
2014-02-01 10:10:00,48.2,38.1,29.98,ESE,112,0.0,-999.0,68,-99.99,,,0.00,Acu-Link.com,2014-02-01 18:10:00,
2014-02-01 10:25:00,50.2,36.9,29.97,NE,45,1.1,-999.0,60,-99.99,,,0.00,Acu-Link.com,2014-02-01 18:25:00,
2014-02-01 10:40:00,51.8,35.7,29.97,ESE,112,1.7,-999.0,54,-99.99,,,0.00,Acu-Link.com,2014-02-01 18:40:00,
2014-02-01 10:56:00,55.6,36.7,29.96,NE,45,1.7,-999.0,49,-99.99,,,0.00,Acu-Link.com,2014-02-01 18:56:00,
2014-02-01 11:11:00,58.1,36.3,29.97,SSE,157,0.0,-999.0,44,-99.99,,,0.00,Acu-Link.com,2014-02-01 19:11:00,
2014-02-01 11:26:00,58.3,34.7,29.96,SE,135,1.1,-999.0,41,-99.99,,,0.00,Acu-Link.com,2014-02-01 19:26:00,
2014-02-01 11:42:00,57.9,31.8,29.96,ESE,112,1.7,-999.0,37,-99.99,,,0.00,Acu-Link.com,2014-02-01 19:42:00,
2014-02-01 11:57:00,62.6,33.8,29.95,SE,135,2.2,-999.0,34,-99.99,,,0.00,Acu-Link.com,2014-02-01 19:57:00,
2014-02-01 12:12:00,63.3,32.2,29.94,South,180,1.7,-999.0,31,-99.99,,,0.00,Acu-Link.com,2014-02-01 20:12:00,
2014-02-01 12:27:00,59.0,29.2,29.94,SSE,157,2.7,-999.0,32,-99.99,,,0.00,Acu-Link.com,2014-02-01 20:27:00,
2014-02-01 12:43:00,58.3,27.8,29.93,SSE,157,3.7,-999.0,31,-99.99,,,0.00,Acu-Link.com,2014-02-01 20:43:00,
2014-02-01 12:58:00,63.0,29.4,29.92,ENE,67,1.1,-999.0,28,-99.99,,,0.00,Acu-Link.com,2014-02-01 20:58:00,
2014-02-01 13:13:00,61.5,26.3,29.91,SE,135,2.2,-999.0,26,-99.99,,,0.00,Acu-Link.com,2014-02-01 21:13:00,
2014-02-01 13:28:00,60.8,27.5,29.91,ESE,112,2.7,-999.0,28,-99.99,,,0.00,Acu-Link.com,2014-02-01 21:28:00,
2014-02-01 13:43:00,60.1,27.7,29.90,SE,135,3.2,-999.0,29,-99.99,,,0.00,Acu-Link.com,2014-02-01 21:43:00,
2014-02-01 13:59:00,60.4,28.8,29.90,ESE,112,1.1,-999.0,30,-99.99,,,0.00,Acu-Link.com,2014-02-01 21:59:00,
2014-02-01 14:14:00,61.7,30.0,29.89,SSW,202,1.7,-999.0,30,-99.99,,,0.00,Acu-Link.com,2014-02-01 22:14:00,
2014-02-01 14:29:00,64.4,33.9,29.89,North,0,1.1,-999.0,32,-99.99,,,0.00,Acu-Link.com,2014-02-01 22:29:00,
2014-02-01 14:44:00,63.7,33.3,29.89,SE,135,2.2,-999.0,32,-99.99,,,0.00,Acu-Link.com,2014-02-01 22:44:00,
2014-02-01 15:00:00,64.8,33.5,29.89,NNE,22,1.1,-999.0,31,-99.99,,,0.00,Acu-Link.com,2014-02-01 23:00:00,
2014-02-01 15:15:00,67.5,32.3,29.89,South,180,0.0,-999.0,27,-99.99,,,0.00,Acu-Link.com,2014-02-01 23:15:00,
2014-02-01 15:30:00,64.2,31.3,29.89,SSW,202,2.2,-999.0,29,-99.99,,,0.00,Acu-Link.com,2014-02-01 23:30:00,
2014-02-01 15:46:00,64.6,31.6,29.89,SSW,202,2.2,-999.0,29,-99.99,,,0.00,Acu-Link.com,2014-02-01 23:46:00,
2014-02-01 16:01:00,63.1,32.0,29.89,NE,45,1.1,-999.0,31,-99.99,,,0.00,Acu-Link.com,2014-02-02 00:01:00,
2014-02-01 16:16:00,60.8,31.5,29.90,East,90,1.7,-999.0,33,-99.99,,,0.00,Acu-Link.com,2014-02-02 00:16:00,
2014-02-01 16:32:00,58.8,31.9,29.89,SE,135,1.1,-999.0,36,-99.99,,,0.00,Acu-Link.com,2014-02-02 00:32:00,
2014-02-01 16:47:00,57.7,32.9,29.90,NNW,337,1.1,-999.0,39,-99.99,,,0.00,Acu-Link.com,2014-02-02 00:47:00,
2014-02-01 17:02:00,55.6,32.3,29.90,South,180,0.0,-999.0,41,-99.99,,,0.00,Acu-Link.com,2014-02-02 01:02:00,
2014-02-01 17:17:00,53.8,31.8,29.90,ESE,112,0.0,-999.0,43,-99.99,,,0.00,Acu-Link.com,2014-02-02 01:17:00,
2014-02-01 17:33:00,52.0,32.4,29.90,ESE,112,0.0,-999.0,47,-99.99,,,0.00,Acu-Link.com,2014-02-02 01:33:00,
2014-02-01 17:48:00,50.2,32.3,29.90,South,180,0.0,-999.0,50,-99.99,,,0.00,Acu-Link.com,2014-02-02 01:48:00,
2014-02-01 18:03:00,48.0,32.2,29.90,South,180,0.0,-999.0,54,-99.99,,,0.00,Acu-Link.com,2014-02-02 02:03:00,
2014-02-01 18:18:00,46.8,31.9,29.90,SSE,157,2.7,-999.0,56,-99.99,,,0.00,Acu-Link.com,2014-02-02 02:18:00,
2014-02-01 18:34:00,45.7,31.8,29.90,East,90,0.0,-999.0,58,-99.99,,,0.00,Acu-Link.com,2014-02-02 02:34:00,
2014-02-01 18:49:00,44.1,31.9,29.90,SSW,202,0.0,-999.0,62,-99.99,,,0.00,Acu-Link.com,2014-02-02 02:49:00,
2014-02-01 19:04:00,43.0,32.1,29.90,ESE,112,1.1,-999.0,65,-99.99,,,0.00,Acu-Link.com,2014-02-02 03:04:00,
2014-02-01 19:20:00,41.7,31.9,29.89,ESE,112,0.0,-999.0,68,-99.99,,,0.00,Acu-Link.com,2014-02-02 03:20:00,
2014-02-01 19:35:00,41.0,32.0,29.89,ESE,112,0.0,-999.0,70,-99.99,,,0.00,Acu-Link.com,2014-02-02 03:35:00,
2014-02-01 19:50:00,39.9,32.0,29.90,ESE,112,0.0,-999.0,73,-99.99,,,0.00,Acu-Link.com,2014-02-02 03:50:00,
2014-02-01 20:05:00,39.0,31.4,29.90,ESE,112,0.0,-999.0,74,-99.99,,,0.00,Acu-Link.com,2014-02-02 04:05:00,
2014-02-01 20:21:00,38.3,31.4,29.90,ESE,112,0.0,-999.0,76,-99.99,,,0.00,Acu-Link.com,2014-02-02 04:21:00,
2014-02-01 20:36:00,37.8,31.2,29.90,ESE,112,0.0,-999.0,77,-99.99,,,0.00,Acu-Link.com,2014-02-02 04:36:00,
2014-02-01 20:51:00,36.9,30.4,29.90,East,90,0.0,-999.0,77,-99.99,,,0.00,Acu-Link.com,2014-02-02 04:51:00,
2014-02-01 21:07:00,36.5,30.6,29.90,SW,225,0.0,-999.0,79,-99.99,,,0.00,Acu-Link.com,2014-02-02 05:07:00,
2014-02-01 21:22:00,36.1,30.8,29.90,South,180,0.0,-999.0,81,-99.99,,,0.00,Acu-Link.com,2014-02-02 05:22:00,
2014-02-01 21:37:00,35.8,30.9,29.90,WSW,247,0.0,-999.0,82,-99.99,,,0.00,Acu-Link.com,2014-02-02 05:37:00,
2014-02-01 21:53:00,36.1,31.7,29.90,ESE,112,0.0,-999.0,84,-99.99,,,0.00,Acu-Link.com,2014-02-02 05:53:00,
2014-02-01 22:08:00,36.3,31.6,29.90,SE,135,0.0,-999.0,83,-99.99,,,0.00,Acu-Link.com,2014-02-02 06:08:00,
2014-02-01 22:23:00,36.1,31.7,29.90,ESE,112,0.0,-999.0,84,-99.99,,,0.00,Acu-Link.com,2014-02-02 06:23:00,
2014-02-01 22:38:00,36.1,31.4,29.90,WSW,247,0.0,-999.0,83,-99.99,,,0.00,Acu-Link.com,2014-02-02 06:38:00,
2014-02-01 22:54:00,35.8,31.7,29.90,ESE,112,0.0,-999.0,85,-99.99,,,0.00,Acu-Link.com,2014-02-02 06:54:00,
2014-02-01 23:09:00,35.4,31.3,29.90,SSE,157,0.0,-999.0,85,-99.99,,,0.00,Acu-Link.com,2014-02-02 07:09:00,
2014-02-01 23:24:00,35.2,31.7,29.89,North,0,0.0,-999.0,87,-99.99,,,0.00,Acu-Link.com,2014-02-02 07:24:00,
2014-02-01 23:40:00,35.4,32.2,29.89,SSE,157,0.0,-999.0,88,-99.99,,,0.00,Acu-Link.com,2014-02-02 07:40:00,
2014-02-01 23:55:00,35.2,31.7,29.89,SE,135,0.0,-999.0,87,-99.99,,,0.00,Acu-Link.com,2014-02-02 07:55:00,